createdAt,value
2019-02-10T06:04:46.073Z,5.30
2019-02-10T06:07:16.688Z,5.30
2019-02-10T06:09:45.138Z,5.30
2019-02-10T06:12:14.197Z,5.30
2019-02-10T06:14:43.361Z,5.30
2019-02-10T06:17:12.621Z,5.40
2019-02-10T06:19:41.728Z,5.30
2019-02-10T06:22:10.719Z,5.40
2019-02-10T06:24:39.749Z,5.40
2019-02-10T06:27:08.822Z,5.40
2019-02-10T06:29:38.035Z,5.40
2019-02-10T06:32:07.143Z,5.30
2019-02-10T06:34:36.382Z,5.40
2019-02-10T06:37:05.430Z,5.40
2019-02-10T06:39:34.627Z,5.40
2019-02-10T06:42:03.809Z,5.40
2019-02-10T06:44:32.925Z,5.40
2019-02-10T06:47:02.224Z,5.50
2019-02-10T06:49:31.488Z,5.50
2019-02-10T06:52:00.507Z,5.50
2019-02-10T06:54:29.714Z,5.50
2019-02-10T06:56:58.725Z,5.60
2019-02-10T06:59:35.114Z,5.50
2019-02-10T07:02:09.681Z,5.60
2019-02-10T07:04:39.032Z,5.60
2019-02-10T07:07:08.344Z,5.60
2019-02-10T07:09:37.764Z,5.70
2019-02-10T07:12:46.409Z,5.60
2019-02-10T07:15:27.243Z,5.70
2019-02-10T07:18:12.977Z,5.70
2019-02-10T07:20:43.261Z,5.80
2019-02-10T07:23:41.773Z,5.90
2019-02-10T07:26:18.687Z,5.90
2019-02-10T07:29:02.790Z,6.00
2019-02-10T07:31:40.625Z,6.00
2019-02-10T07:34:24.614Z,6.10
2019-02-10T07:39:10.645Z,6.20
2019-02-10T07:43:53.318Z,6.20
2019-02-10T07:46:32.675Z,6.20
2019-02-10T07:49:11.304Z,6.30
2019-02-10T07:52:51.386Z,6.30
2019-02-10T07:55:35.558Z,6.30
2019-02-10T07:58:16.163Z,6.30
2019-02-10T08:00:54.568Z,6.40
2019-02-10T08:05:54.107Z,6.40
2019-02-10T08:08:36.381Z,6.50
2019-02-10T08:11:22.485Z,6.50
2019-02-10T08:15:14.369Z,6.50
2019-02-10T08:17:51.240Z,6.60
2019-02-10T08:20:36.959Z,6.50
2019-02-10T08:23:21.633Z,6.50
2019-02-10T08:26:22.887Z,6.40
2019-02-10T08:29:02.167Z,6.40
2019-02-10T08:31:46.323Z,6.40
2019-02-10T08:34:28.863Z,6.30
2019-02-10T08:37:13.077Z,6.30
2019-02-10T08:41:57.233Z,6.20
2019-02-10T08:45:41.441Z,6.20
2019-02-10T08:50:23.219Z,6.10
2019-02-10T08:52:57.903Z,6.10
2019-02-10T08:55:27.261Z,6.10
2019-02-10T08:57:56.511Z,6.10
2019-02-10T09:00:25.705Z,6.10
2019-02-10T09:02:55.559Z,6.20
2019-02-10T09:05:25.281Z,6.10
2019-02-10T09:07:54.569Z,6.10
2019-02-10T09:10:24.155Z,6.00
2019-02-10T09:12:54.863Z,6.00
2019-02-10T09:15:22.603Z,5.90
2019-02-10T09:17:56.013Z,5.90
2019-02-10T09:20:25.736Z,5.90
2019-02-10T09:22:54.770Z,5.80
2019-02-10T09:25:23.847Z,5.90
2019-02-10T09:27:53.130Z,5.80
2019-02-10T09:30:22.167Z,5.90
2019-02-10T09:32:54.715Z,5.90
2019-02-10T09:35:23.834Z,5.80
2019-02-10T09:37:52.839Z,5.90
2019-02-10T09:40:21.845Z,5.90
2019-02-10T09:42:50.971Z,5.80
2019-02-10T09:45:19.945Z,5.90
2019-02-10T09:47:49.081Z,5.80
2019-02-10T09:50:19.915Z,5.80
2019-02-10T09:52:48.995Z,5.70
2019-02-10T09:55:18.349Z,5.70
2019-02-10T09:57:48.720Z,5.70
2019-02-10T10:00:17.774Z,5.60
2019-02-10T10:02:46.927Z,5.60
2019-02-10T10:05:15.979Z,5.60
2019-02-10T10:07:44.961Z,5.70
2019-02-10T10:10:14.055Z,5.70
2019-02-10T10:12:43.089Z,5.70
2019-02-10T10:15:13.985Z,5.70
2019-02-10T10:17:43.035Z,5.70
2019-02-10T10:20:13.799Z,5.70
2019-02-10T10:22:42.954Z,5.70
2019-02-10T10:25:11.973Z,5.70
2019-02-10T10:27:41.357Z,5.70
2019-02-10T10:30:13.617Z,5.80
2019-02-10T10:32:42.639Z,5.80
2019-02-10T10:35:11.659Z,5.80
2019-02-10T10:37:43.093Z,5.90
2019-02-10T10:40:12.332Z,5.90
2019-02-10T10:42:41.465Z,5.90
2019-02-10T10:45:10.946Z,6.00
2019-02-10T10:47:40.213Z,6.00
2019-02-10T10:50:10.023Z,6.00
2019-02-10T10:52:39.650Z,6.00
2019-02-10T10:55:09.220Z,6.00
2019-02-10T10:57:38.709Z,6.00
2019-02-10T11:00:09.540Z,6.10
2019-02-10T11:02:38.933Z,6.10
2019-02-10T11:05:09.189Z,6.10
2019-02-10T11:07:38.546Z,6.20
2019-02-10T11:10:07.709Z,6.20
2019-02-10T11:12:36.764Z,6.30
2019-02-10T11:15:06.771Z,6.30
2019-02-10T11:17:36.015Z,6.40
2019-02-10T11:20:06.399Z,6.50
2019-02-10T11:22:36.566Z,6.60
2019-02-10T11:25:06.221Z,6.70
2019-02-10T11:27:35.319Z,6.80
2019-02-10T11:30:04.765Z,6.80
2019-02-10T11:32:33.795Z,6.80
2019-02-10T11:35:02.958Z,6.80
2019-02-10T11:37:32.002Z,6.80
2019-02-10T11:40:02.948Z,6.80
2019-02-10T11:42:32.196Z,6.80
2019-02-10T11:45:03.114Z,6.80
2019-02-10T11:47:33.177Z,6.80
2019-02-10T11:50:02.128Z,6.80
2019-02-10T11:52:31.349Z,6.90
2019-02-10T11:55:00.452Z,6.90
2019-02-10T11:57:29.559Z,6.90
2019-02-10T11:59:58.845Z,6.90
2019-02-10T12:02:28.289Z,7.00
2019-02-10T12:04:57.813Z,7.00
2019-02-10T12:07:26.913Z,7.10
2019-02-10T12:09:56.039Z,7.10
2019-02-10T12:12:25.115Z,7.10
2019-02-10T12:14:54.269Z,7.10
2019-02-10T12:17:23.537Z,7.10
2019-02-10T12:19:53.475Z,7.10
2019-02-10T12:22:23.013Z,7.20
2019-02-10T12:24:52.523Z,7.20
2019-02-10T12:27:22.168Z,7.20
2019-02-10T12:29:52.287Z,7.30
2019-02-10T12:32:22.621Z,7.30
2019-02-10T12:34:51.847Z,7.30
2019-02-10T12:37:20.989Z,7.30
2019-02-10T12:39:50.188Z,7.30
2019-02-10T12:42:19.843Z,7.30
2019-02-10T12:44:56.681Z,7.40
2019-02-10T12:47:30.380Z,7.40
2019-02-10T12:49:59.685Z,7.40
2019-02-10T12:52:29.106Z,7.40
2019-02-10T12:54:59.771Z,7.40
2019-02-10T12:57:42.673Z,7.30
2019-02-10T13:00:13.746Z,7.30
2019-02-10T13:02:53.421Z,7.30
2019-02-10T13:05:23.321Z,7.40
2019-02-10T13:07:53.445Z,7.40
2019-02-10T13:10:25.773Z,7.40
2019-02-10T13:12:54.869Z,7.40
2019-02-10T13:15:23.847Z,7.40
2019-02-10T13:17:53.183Z,7.40
2019-02-10T13:20:23.701Z,7.40
2019-02-10T13:23:01.387Z,7.40
2019-02-10T13:25:30.510Z,7.40
2019-02-10T13:28:00.140Z,7.50
2019-02-10T13:30:29.783Z,7.50
2019-02-10T13:32:58.841Z,7.50
2019-02-10T13:38:13.963Z,7.60
2019-02-10T13:40:43.726Z,7.60
2019-02-10T13:43:13.814Z,7.60
2019-02-10T13:45:43.193Z,7.60
2019-02-10T13:48:12.523Z,7.60
2019-02-10T13:50:41.773Z,7.60
2019-02-10T13:53:11.435Z,7.60
2019-02-10T13:55:40.687Z,7.50
2019-02-10T13:58:10.197Z,7.60
2019-02-10T14:00:39.495Z,7.60
2019-02-10T14:03:09.074Z,7.60
2019-02-10T14:05:49.291Z,7.60
2019-02-10T14:08:18.513Z,7.60
2019-02-10T14:10:47.925Z,7.50
2019-02-10T14:13:17.376Z,7.60
2019-02-10T14:15:47.556Z,7.60
2019-02-10T14:18:20.792Z,7.60
2019-02-10T14:20:52.537Z,7.60
2019-02-10T14:23:22.789Z,7.50
2019-02-10T14:25:54.583Z,7.50
2019-02-10T14:28:23.613Z,7.50
2019-02-10T14:30:52.887Z,7.50
2019-02-10T14:33:22.544Z,7.50
2019-02-10T14:35:51.607Z,7.50
2019-02-10T14:38:20.681Z,7.50
2019-02-10T14:40:49.774Z,7.50
2019-02-10T14:43:19.007Z,7.50
2019-02-10T14:45:48.039Z,7.50
2019-02-10T14:48:17.156Z,7.50
2019-02-10T14:50:46.235Z,7.50
2019-02-10T14:53:15.701Z,7.50
2019-02-10T14:55:44.739Z,7.50
2019-02-10T14:58:13.883Z,7.50
2019-02-10T15:00:43.075Z,7.50
2019-02-10T15:03:12.329Z,7.50
2019-02-10T15:05:41.605Z,7.50
2019-02-10T15:08:10.922Z,7.50
2019-02-10T15:10:42.000Z,7.50
2019-02-10T15:13:09.965Z,7.40
2019-02-10T15:15:39.031Z,7.40
2019-02-10T15:18:08.529Z,7.40
2019-02-10T15:20:37.625Z,7.40
2019-02-10T15:23:06.581Z,7.40
2019-02-10T15:25:36.958Z,7.40
2019-02-10T15:28:06.151Z,7.40
2019-02-10T15:30:35.333Z,7.40
2019-02-10T15:33:06.209Z,7.40
2019-02-10T15:35:33.949Z,7.40
2019-02-10T15:38:03.031Z,7.40
2019-02-10T15:40:32.207Z,7.40
2019-02-10T15:43:01.479Z,7.40
2019-02-10T15:45:30.630Z,7.40
2019-02-10T15:48:00.105Z,7.40
2019-02-10T15:50:29.163Z,7.40
2019-02-10T15:52:58.234Z,7.40
2019-02-10T15:55:28.039Z,7.40
2019-02-10T15:57:57.022Z,7.40
2019-02-10T16:00:26.127Z,7.40
2019-02-10T16:02:55.315Z,7.50
2019-02-10T16:05:25.431Z,7.50
2019-02-10T16:07:54.494Z,7.50
2019-02-10T16:10:23.607Z,7.60
2019-02-10T16:12:52.907Z,7.60
2019-02-10T16:15:21.952Z,7.50
2019-02-10T16:17:51.200Z,7.60
2019-02-10T16:20:20.257Z,7.60
2019-02-10T16:22:49.253Z,7.60
2019-02-10T16:25:18.368Z,7.60
2019-02-10T16:27:47.458Z,7.60
2019-02-10T16:30:16.523Z,7.60
2019-02-10T16:32:49.953Z,7.60
2019-02-10T16:35:15.136Z,7.60
2019-02-10T16:37:44.198Z,7.70
2019-02-10T16:40:15.361Z,7.70
2019-02-10T16:42:44.413Z,7.70
2019-02-10T16:45:13.588Z,7.70
2019-02-10T16:47:42.619Z,7.80
2019-02-10T16:50:12.210Z,7.80
2019-02-10T16:52:41.226Z,7.80
2019-02-10T16:55:11.726Z,7.80
2019-02-10T16:57:40.796Z,7.80
2019-02-10T17:00:11.725Z,7.90
2019-02-10T17:02:40.704Z,7.80
2019-02-10T17:05:10.019Z,7.90
2019-02-10T17:07:39.827Z,7.90
2019-02-10T17:10:10.478Z,7.90
2019-02-10T17:12:39.506Z,8.00
2019-02-10T17:15:09.517Z,8.00
2019-02-10T17:17:38.538Z,8.00
2019-02-10T17:20:08.699Z,8.00
2019-02-10T17:22:37.886Z,8.00
2019-02-10T17:25:09.234Z,8.10
2019-02-10T17:27:38.243Z,8.10
2019-02-10T17:30:07.875Z,8.10
2019-02-10T17:32:37.057Z,8.20
2019-02-10T17:35:06.937Z,8.20
2019-02-10T17:37:36.056Z,8.30
2019-02-10T17:40:07.854Z,8.40
2019-02-10T17:42:36.860Z,8.40
2019-02-10T17:45:07.451Z,8.50
2019-02-10T17:47:36.793Z,8.60
2019-02-10T17:50:07.634Z,8.60
2019-02-10T17:52:36.656Z,8.60
2019-02-10T17:55:07.404Z,8.60
2019-02-10T17:57:36.400Z,8.70
2019-02-10T18:00:05.878Z,8.70
2019-02-10T18:02:34.845Z,8.80
2019-02-10T18:05:03.836Z,8.80
2019-02-10T18:07:33.020Z,8.70
2019-02-10T18:10:02.095Z,8.80
2019-02-10T18:12:31.205Z,8.90
2019-02-10T18:15:25.567Z,9.00
2019-02-10T18:17:59.842Z,9.00
2019-02-10T18:20:36.112Z,9.00
2019-02-10T18:23:10.382Z,9.00
2019-02-10T18:25:45.682Z,9.00
2019-02-10T18:28:19.927Z,9.10
2019-02-10T18:30:54.202Z,9.00
2019-02-10T18:33:29.424Z,9.10
2019-02-10T18:38:08.734Z,9.10
2019-02-10T18:40:41.998Z,9.20
2019-02-10T18:43:18.241Z,9.10
2019-02-10T18:45:53.597Z,8.90
2019-02-10T18:48:30.674Z,8.80
2019-02-10T18:51:07.971Z,8.70
